Terminal Aerodrome Forecast
Issued by NWS Des Moines, IA

Home | Current Version | Previous Version | Text Only | Print | Product List | Glossary On
Versions: 1 2 3 4 5 6 7 8 9 10 11 12 13 14 15 16 17 18 19 20 21 22 23 24 25 26 27 28 29 30 31 32 33 34 35 36 37 38 39 40 41 42 43 44 45 46 47
000
FTUS43 KDMX 042344
TAFALO
TAF
KALO 042344Z 0500/0524 05008KT 6SM -RA SCT035 OVC050
     FM050400 06009KT P6SM VCSH SCT025 OVC040
     FM050800 08009KT 6SM -TSRA SCT010 OVC025CB
     FM051300 09007KT 6SM -SHRA VCTS SCT020 BKN030CB=

USA.gov is the U.S. government's official web portal to all federal, state and local government web resources and services.